createdAt,value
2023-04-16T00:02:05.516Z,43.69
2023-04-16T00:04:32.531Z,42.67
2023-04-16T00:06:59.313Z,44.61
2023-04-16T00:09:26.172Z,42.03
2023-04-16T00:11:52.908Z,43.98
2023-04-16T00:14:20.021Z,41.58
2023-04-16T00:16:47.230Z,43.77
2023-04-16T00:19:14.366Z,42.25
2023-04-16T00:21:41.240Z,43.81
2023-04-16T00:24:08.106Z,42.39
2023-04-16T00:26:35.267Z,44.79
2023-04-16T00:29:02.728Z,44.20
2023-04-16T00:31:31.297Z,45.17
2023-04-16T00:33:58.605Z,43.01
2023-04-16T00:36:27.145Z,43.41
2023-04-16T00:38:54.795Z,40.79
2023-04-16T00:41:23.108Z,44.57
2023-04-16T00:43:50.817Z,42.61
2023-04-16T00:46:20.092Z,43.19
2023-04-16T00:48:47.645Z,40.52
2023-04-16T00:51:14.873Z,42.44
2023-04-16T00:53:42.036Z,41.70
2023-04-16T00:56:09.870Z,45.18
2023-04-16T00:58:36.668Z,44.10
2023-04-16T01:01:04.052Z,43.98
2023-04-16T01:03:41.184Z,45.06
2023-04-16T01:06:08.338Z,45.89
2023-04-16T01:08:35.639Z,45.98
2023-04-16T01:11:02.898Z,44.85
2023-04-16T01:13:30.234Z,45.15
2023-04-16T01:15:57.364Z,45.58
2023-04-16T01:18:25.615Z,46.47
2023-04-16T01:20:52.611Z,45.77
2023-04-16T01:23:19.829Z,43.91
2023-04-16T01:25:47.827Z,44.09
2023-04-16T01:28:15.021Z,42.21
2023-04-16T01:30:41.848Z,46.65
2023-04-16T01:33:30.024Z,43.62
2023-04-16T01:35:56.739Z,44.73
2023-04-16T01:38:24.050Z,43.17
2023-04-16T01:40:55.430Z,44.21
2023-04-16T01:43:22.147Z,46.57
2023-04-16T01:45:49.707Z,47.06
2023-04-16T01:48:16.733Z,43.33
2023-04-16T01:50:43.824Z,45.00
2023-04-16T01:53:10.687Z,44.29
2023-04-16T01:55:37.369Z,43.66
2023-04-16T01:58:04.812Z,45.74
2023-04-16T02:00:34.902Z,46.60
2023-04-16T02:03:01.862Z,45.16
2023-04-16T02:05:29.121Z,42.67
2023-04-16T02:07:57.800Z,42.34
2023-04-16T02:10:24.588Z,45.39
2023-04-16T02:12:51.502Z,43.16
2023-04-16T02:15:18.786Z,43.54
2023-04-16T02:17:46.764Z,43.50
2023-04-16T02:20:13.845Z,43.45
2023-04-16T02:22:51.426Z,43.02
2023-04-16T02:25:21.199Z,41.47
2023-04-16T02:27:48.649Z,41.68
2023-04-16T02:30:35.158Z,47.14
2023-04-16T02:33:05.669Z,43.93
2023-04-16T02:35:33.936Z,45.00
2023-04-16T02:38:01.472Z,44.82
2023-04-16T02:40:28.534Z,40.57
2023-04-16T02:42:55.709Z,42.04
2023-04-16T02:45:23.404Z,42.23
2023-04-16T02:47:51.517Z,46.22
2023-04-16T02:50:18.944Z,41.14
2023-04-16T02:52:45.976Z,43.91
2023-04-16T02:55:12.891Z,43.75
2023-04-16T02:57:39.730Z,43.57
2023-04-16T03:00:07.821Z,41.23
2023-04-16T03:02:35.133Z,41.75
2023-04-16T03:05:03.181Z,43.79
2023-04-16T03:07:30.632Z,43.84
2023-04-16T03:09:57.400Z,42.49
2023-04-16T03:12:24.266Z,40.85
2023-04-16T03:14:54.767Z,45.25
2023-04-16T03:17:21.963Z,42.63
2023-04-16T03:19:50.754Z,43.13
2023-04-16T03:22:19.438Z,42.90
2023-04-16T03:24:46.545Z,44.23
2023-04-16T03:27:13.228Z,42.34
2023-04-16T03:29:40.055Z,41.96
2023-04-16T03:32:08.191Z,43.29
2023-04-16T03:34:37.117Z,43.32
2023-04-16T03:37:05.765Z,41.24
2023-04-16T03:39:34.357Z,43.12
2023-04-16T03:42:02.290Z,43.71
2023-04-16T03:44:29.958Z,45.08
2023-04-16T03:46:56.941Z,42.47
2023-04-16T03:49:23.821Z,42.35
2023-04-16T03:51:51.278Z,40.49
2023-04-16T03:54:20.121Z,40.44
2023-04-16T03:56:53.661Z,42.13
2023-04-16T03:59:21.045Z,43.67
2023-04-16T04:01:47.873Z,42.95
2023-04-16T04:04:15.303Z,42.63
2023-04-16T04:06:42.114Z,42.23
2023-04-16T04:09:09.191Z,47.10
2023-04-16T04:11:36.192Z,45.40
2023-04-16T04:14:05.481Z,42.07
2023-04-16T04:16:32.901Z,43.16
2023-04-16T04:19:00.463Z,40.43
2023-04-16T04:21:28.758Z,43.98
2023-04-16T04:23:56.130Z,41.18
2023-04-16T04:26:23.391Z,40.25
2023-04-16T04:28:51.272Z,46.27
2023-04-16T04:31:18.782Z,44.89
2023-04-16T04:33:46.124Z,44.03
2023-04-16T04:36:12.817Z,42.20
2023-04-16T04:38:39.848Z,45.08
2023-04-16T04:41:06.663Z,42.94
2023-04-16T04:43:36.718Z,43.30
2023-04-16T04:46:03.611Z,43.44
2023-04-16T04:48:32.047Z,42.94
2023-04-16T04:50:58.900Z,45.15
2023-04-16T04:53:25.686Z,45.26
2023-04-16T04:55:55.652Z,42.76
2023-04-16T04:58:25.736Z,41.30
2023-04-16T05:00:52.940Z,46.72
2023-04-16T05:03:21.879Z,42.67
2023-04-16T05:05:48.867Z,42.72
2023-04-16T05:08:15.712Z,44.29
2023-04-16T05:10:42.402Z,44.01
2023-04-16T05:13:09.117Z,42.02
2023-04-16T05:15:36.520Z,41.58
2023-04-16T05:18:03.467Z,42.92
2023-04-16T05:20:30.688Z,41.99
2023-04-16T05:22:57.415Z,40.87
2023-04-16T05:25:24.151Z,40.23
2023-04-16T05:27:51.561Z,43.07
2023-04-16T05:30:18.481Z,42.86
2023-04-16T05:32:45.336Z,41.71
2023-04-16T05:35:12.343Z,43.12
2023-04-16T05:37:39.030Z,42.64
2023-04-16T05:40:07.064Z,43.51
2023-04-16T05:42:33.793Z,43.89
2023-04-16T05:45:03.692Z,43.06
2023-04-16T05:47:30.681Z,40.86
2023-04-16T05:49:57.507Z,39.89
2023-04-16T05:52:24.264Z,40.26
2023-04-16T05:54:50.992Z,43.78
2023-04-16T05:57:17.689Z,41.30
2023-04-16T05:59:44.400Z,40.41
2023-04-16T06:02:11.309Z,39.99
2023-04-16T06:04:38.398Z,39.92
2023-04-16T06:07:05.227Z,39.66
2023-04-16T06:09:32.339Z,47.30
2023-04-16T06:11:59.830Z,39.56
2023-04-16T06:14:26.555Z,41.29
2023-04-16T06:16:53.677Z,42.50
2023-04-16T06:19:21.002Z,41.17
2023-04-16T06:21:47.810Z,40.83
2023-04-16T06:24:14.617Z,41.13
2023-04-16T06:26:41.300Z,42.22
2023-04-16T06:29:08.155Z,42.77
2023-04-16T06:31:35.114Z,43.63
2023-04-16T06:34:01.880Z,44.58
2023-04-16T06:36:29.152Z,40.94
2023-04-16T06:38:55.893Z,41.35
2023-04-16T06:41:23.714Z,42.93
2023-04-16T06:43:50.434Z,44.13
2023-04-16T06:46:17.864Z,41.96
2023-04-16T06:48:44.682Z,44.46
2023-04-16T06:51:11.738Z,40.85
2023-04-16T06:53:38.892Z,40.54
2023-04-16T06:56:06.390Z,42.42
2023-04-16T06:58:33.133Z,42.07
2023-04-16T07:01:00.233Z,42.29
2023-04-16T07:03:27.683Z,45.31
2023-04-16T07:05:54.554Z,41.21
2023-04-16T07:08:21.526Z,40.68
2023-04-16T07:10:48.473Z,40.56
2023-04-16T07:13:15.304Z,43.60
2023-04-16T07:15:42.026Z,41.09
2023-04-16T07:18:09.571Z,39.48
2023-04-16T07:20:37.737Z,41.05
2023-04-16T07:23:04.534Z,39.84
2023-04-16T07:25:31.277Z,39.55
2023-04-16T07:27:58.142Z,42.33
2023-04-16T07:30:25.046Z,40.57
2023-04-16T07:32:51.945Z,42.25
2023-04-16T07:35:18.722Z,43.15
2023-04-16T07:37:45.401Z,41.70
2023-04-16T07:40:12.381Z,40.73
2023-04-16T07:42:39.390Z,42.56
2023-04-16T07:45:06.997Z,40.38
2023-04-16T07:47:33.769Z,41.20
2023-04-16T07:50:00.490Z,43.06
2023-04-16T07:52:27.160Z,40.05
2023-04-16T07:54:54.333Z,39.29
2023-04-16T07:57:21.852Z,39.77
2023-04-16T07:59:48.672Z,42.67
2023-04-16T08:02:17.074Z,39.31
2023-04-16T08:04:44.663Z,40.72
2023-04-16T08:07:11.794Z,38.86
2023-04-16T08:09:47.756Z,38.93
2023-04-16T08:12:14.597Z,40.93
2023-04-16T08:14:41.505Z,38.60
2023-04-16T08:17:08.509Z,38.51
2023-04-16T08:19:35.202Z,41.82
2023-04-16T08:22:02.011Z,39.26
2023-04-16T08:24:29.056Z,39.39
2023-04-16T08:27:02.468Z,40.24
2023-04-16T08:29:38.688Z,38.74
2023-04-16T08:32:06.323Z,37.70
2023-04-16T08:34:33.075Z,37.25
2023-04-16T08:36:59.797Z,37.22
2023-04-16T08:39:26.609Z,35.54
2023-04-16T08:41:54.796Z,37.14
2023-04-16T08:44:27.716Z,37.44
2023-04-16T08:46:58.237Z,37.94
2023-04-16T08:49:26.860Z,39.15
2023-04-16T08:51:55.743Z,38.95
2023-04-16T08:54:28.718Z,36.33
2023-04-16T08:56:58.880Z,35.92
2023-04-16T08:59:26.756Z,37.94
2023-04-16T09:01:58.137Z,36.88
2023-04-16T09:04:29.422Z,37.58
2023-04-16T09:06:59.662Z,40.94
2023-04-16T09:09:26.908Z,36.75
2023-04-16T09:11:54.512Z,35.88
2023-04-16T09:14:22.683Z,36.49
2023-04-16T09:16:53.259Z,34.60
2023-04-16T09:19:20.078Z,36.13
2023-04-16T09:21:48.198Z,37.12
2023-04-16T09:24:15.049Z,35.95
2023-04-16T09:26:43.625Z,38.75
2023-04-16T09:29:10.884Z,37.56
2023-04-16T09:31:38.064Z,35.64
2023-04-16T09:34:09.357Z,36.76
2023-04-16T09:36:36.857Z,36.13
2023-04-16T09:39:04.124Z,34.89
2023-04-16T09:41:35.875Z,36.88
2023-04-16T09:44:06.948Z,36.50
2023-04-16T09:46:41.051Z,34.65
2023-04-16T09:49:13.487Z,35.75
2023-04-16T09:51:44.291Z,36.35
2023-04-16T09:54:11.278Z,33.02
2023-04-16T09:56:45.964Z,32.59
2023-04-16T09:59:24.598Z,33.76
2023-04-16T10:01:57.291Z,34.51
2023-04-16T10:04:53.355Z,35.38
2023-04-16T10:07:21.403Z,33.95
2023-04-16T10:09:49.722Z,35.76
2023-04-16T10:12:16.812Z,36.22
2023-04-16T10:14:43.738Z,38.75
2023-04-16T10:17:11.031Z,33.64
2023-04-16T10:19:38.455Z,36.52
2023-04-16T10:22:05.495Z,35.17
2023-04-16T10:24:33.974Z,34.54
2023-04-16T10:27:01.068Z,34.58
2023-04-16T10:29:29.831Z,36.05
2023-04-16T10:31:57.882Z,36.88
2023-04-16T10:34:26.188Z,36.26
2023-04-16T10:36:54.936Z,32.83
2023-04-16T10:39:23.828Z,35.60
2023-04-16T10:41:51.420Z,36.56
2023-04-16T10:44:19.344Z,35.37
2023-04-16T10:46:51.798Z,36.76
2023-04-16T10:49:23.755Z,38.94
2023-04-16T10:51:59.696Z,36.18
2023-04-16T10:54:27.778Z,38.25
2023-04-16T10:56:57.720Z,37.94
2023-04-16T10:59:26.005Z,37.17
2023-04-16T11:01:55.868Z,35.90
2023-04-16T11:04:25.835Z,35.91
2023-04-16T11:07:32.097Z,36.45
2023-04-16T11:10:00.065Z,36.95
2023-04-16T11:12:39.866Z,34.52
2023-04-16T11:15:11.496Z,34.76
2023-04-16T11:17:44.208Z,34.75
2023-04-16T11:20:26.163Z,38.08
2023-04-16T11:22:55.276Z,39.59
2023-04-16T11:25:27.074Z,37.24
2023-04-16T11:27:55.162Z,36.93
2023-04-16T11:30:41.664Z,36.65
2023-04-16T11:33:11.484Z,37.83
2023-04-16T11:35:40.578Z,37.31
2023-04-16T11:38:08.140Z,38.06
2023-04-16T11:40:36.882Z,37.77
2023-04-16T11:43:15.506Z,38.71
2023-04-16T11:46:12.957Z,32.76
2023-04-16T11:49:01.154Z,37.43
2023-04-16T11:51:27.945Z,36.92
2023-04-16T11:53:56.637Z,37.96
2023-04-16T11:56:28.490Z,34.90
2023-04-16T11:59:18.990Z,34.28
2023-04-16T12:01:48.578Z,34.42
2023-04-16T12:04:16.889Z,35.64
2023-04-16T12:07:13.147Z,35.54
2023-04-16T12:09:43.966Z,37.40
2023-04-16T12:12:28.381Z,38.68
2023-04-16T12:14:57.076Z,38.08
2023-04-16T12:17:24.689Z,35.88
2023-04-16T12:20:06.113Z,39.11
2023-04-16T12:22:36.994Z,36.93
2023-04-16T12:25:11.397Z,39.61
2023-04-16T12:27:43.438Z,37.95
2023-04-16T12:30:11.201Z,39.15
2023-04-16T12:32:38.038Z,36.95
2023-04-16T12:35:05.509Z,34.61
2023-04-16T12:37:32.305Z,37.94
2023-04-16T12:39:59.004Z,37.57
2023-04-16T12:42:26.456Z,36.07
2023-04-16T12:44:53.269Z,36.29
2023-04-16T12:47:20.381Z,35.41
2023-04-16T12:49:47.056Z,35.79
2023-04-16T12:52:13.812Z,34.47
2023-04-16T12:54:41.437Z,33.69
2023-04-16T12:57:08.224Z,35.71
2023-04-16T12:59:35.428Z,35.10
2023-04-16T13:02:02.891Z,33.21
2023-04-16T13:04:29.764Z,33.15
2023-04-16T13:06:56.650Z,33.73
2023-04-16T13:09:23.575Z,37.22
2023-04-16T13:11:50.560Z,36.76
2023-04-16T13:14:17.361Z,38.24
2023-04-16T13:16:44.061Z,38.41
2023-04-16T13:19:11.975Z,36.54
2023-04-16T13:21:39.148Z,37.56
2023-04-16T13:24:06.661Z,38.14
2023-04-16T13:26:33.392Z,38.60
2023-04-16T13:29:00.166Z,38.40
2023-04-16T13:31:27.333Z,38.39
2023-04-16T13:33:54.558Z,36.50
2023-04-16T13:36:22.151Z,38.65
2023-04-16T13:38:48.960Z,37.93
2023-04-16T13:41:15.851Z,38.81
2023-04-16T13:43:43.006Z,39.16
2023-04-16T13:46:09.818Z,38.14
2023-04-16T13:48:37.360Z,39.96
2023-04-16T13:51:04.322Z,38.89
2023-04-16T13:53:31.040Z,38.66
2023-04-16T13:55:58.259Z,39.28
2023-04-16T13:58:25.720Z,40.50
2023-04-16T14:00:52.736Z,39.55
2023-04-16T14:03:19.528Z,39.21
2023-04-16T14:05:46.622Z,39.39
2023-04-16T14:08:14.889Z,41.21
2023-04-16T14:10:42.347Z,37.85
2023-04-16T14:13:09.645Z,38.38
2023-04-16T14:15:36.471Z,40.57
2023-04-16T14:18:03.927Z,40.39
2023-04-16T14:20:30.776Z,41.12
2023-04-16T14:22:57.661Z,39.33
2023-04-16T14:25:24.774Z,38.40
2023-04-16T14:27:51.489Z,41.20
2023-04-16T14:30:18.317Z,37.54
2023-04-16T14:32:45.069Z,37.17
2023-04-16T14:35:12.697Z,40.03
2023-04-16T14:37:39.762Z,38.59
2023-04-16T14:40:10.313Z,38.57
2023-04-16T14:42:38.777Z,39.88
2023-04-16T14:45:06.813Z,40.36
2023-04-16T14:47:37.948Z,42.05
2023-04-16T14:50:05.557Z,38.57
2023-04-16T14:52:32.779Z,39.49
2023-04-16T14:54:59.843Z,38.16
2023-04-16T14:57:27.276Z,42.44
2023-04-16T14:59:54.384Z,41.41
2023-04-16T15:02:22.077Z,39.30
2023-04-16T15:04:49.117Z,38.55
2023-04-16T15:07:15.815Z,42.17
2023-04-16T15:09:43.017Z,36.64
2023-04-16T15:12:09.671Z,37.10
2023-04-16T15:14:36.734Z,37.79
2023-04-16T15:17:03.659Z,38.12
2023-04-16T15:19:30.600Z,39.25
2023-04-16T15:21:59.220Z,40.22
2023-04-16T15:24:26.710Z,42.95
2023-04-16T15:26:53.470Z,41.53
2023-04-16T15:29:20.390Z,36.55
2023-04-16T15:31:47.960Z,38.29
2023-04-16T15:34:14.745Z,37.72
2023-04-16T15:36:42.143Z,41.65
2023-04-16T15:39:09.645Z,39.49
2023-04-16T15:41:47.212Z,39.46
2023-04-16T15:44:27.142Z,39.55
2023-04-16T15:46:53.935Z,42.75
2023-04-16T15:49:20.695Z,39.03
2023-04-16T15:51:47.594Z,35.16
2023-04-16T15:54:14.590Z,38.36
2023-04-16T15:56:42.243Z,35.86
2023-04-16T15:59:09.482Z,36.88
2023-04-16T16:01:36.548Z,38.28
2023-04-16T16:04:07.866Z,41.54
2023-04-16T16:06:35.121Z,39.08
2023-04-16T16:09:01.871Z,39.49
2023-04-16T16:11:28.840Z,42.40
2023-04-16T16:13:55.665Z,39.08
2023-04-16T16:16:22.528Z,39.95
2023-04-16T16:18:49.348Z,39.49
2023-04-16T16:21:16.201Z,42.70
2023-04-16T16:23:43.714Z,40.04
2023-04-16T16:26:10.495Z,37.97
2023-04-16T16:28:41.176Z,38.89
2023-04-16T16:31:08.642Z,41.98
2023-04-16T16:33:35.439Z,40.88
2023-04-16T16:36:03.156Z,41.00
2023-04-16T16:38:30.063Z,40.92
2023-04-16T16:40:57.408Z,39.33
2023-04-16T16:43:24.205Z,39.05
2023-04-16T16:45:51.329Z,37.90
2023-04-16T16:48:18.016Z,39.35
2023-04-16T16:50:45.149Z,40.23
2023-04-16T16:53:11.877Z,39.86
2023-04-16T16:55:39.240Z,39.13
2023-04-16T16:58:06.271Z,37.25
2023-04-16T17:00:33.195Z,40.47
2023-04-16T17:03:00.547Z,42.19
2023-04-16T17:05:27.910Z,40.33
2023-04-16T17:07:54.682Z,41.06
2023-04-16T17:10:22.460Z,43.76
2023-04-16T17:12:51.098Z,40.82
2023-04-16T17:15:20.578Z,40.36
2023-04-16T17:17:48.570Z,40.95
2023-04-16T17:20:16.029Z,38.20
2023-04-16T17:22:43.184Z,37.64
2023-04-16T17:25:10.228Z,42.71
2023-04-16T17:27:37.068Z,36.42
2023-04-16T17:30:05.867Z,40.20
2023-04-16T17:32:32.959Z,40.72
2023-04-16T17:35:01.812Z,41.22
2023-04-16T17:37:29.508Z,41.67
2023-04-16T17:39:56.595Z,41.63
2023-04-16T17:42:24.662Z,41.43
2023-04-16T17:44:51.527Z,42.29
2023-04-16T17:47:18.300Z,41.10
2023-04-16T17:49:45.691Z,41.13
2023-04-16T17:52:12.444Z,38.87
2023-04-16T17:54:39.974Z,41.95
2023-04-16T17:57:06.763Z,44.28
2023-04-16T17:59:33.479Z,43.69
2023-04-16T18:02:00.872Z,42.38
2023-04-16T18:04:28.505Z,41.81
2023-04-16T18:06:55.401Z,40.30
2023-04-16T18:09:22.181Z,40.30
2023-04-16T18:11:48.901Z,39.96
2023-04-16T18:14:19.932Z,40.32
2023-04-16T18:16:49.968Z,40.51
2023-04-16T18:19:16.827Z,38.78
2023-04-16T18:21:45.032Z,38.42
2023-04-16T18:24:12.204Z,40.02
2023-04-16T18:26:40.977Z,40.92
2023-04-16T18:29:08.192Z,40.99
2023-04-16T18:31:36.003Z,40.48
2023-04-16T18:34:02.953Z,40.25
2023-04-16T18:36:31.268Z,39.80
2023-04-16T18:39:02.262Z,39.78
2023-04-16T18:41:31.350Z,38.21
2023-04-16T18:43:59.252Z,39.30
2023-04-16T18:46:27.734Z,37.67
2023-04-16T18:48:54.672Z,36.61
2023-04-16T18:51:21.440Z,36.69
2023-04-16T18:53:48.202Z,37.69
2023-04-16T18:56:15.476Z,36.37
2023-04-16T18:58:43.232Z,37.77
2023-04-16T19:01:14.317Z,37.97
2023-04-16T19:03:41.219Z,40.61
2023-04-16T19:06:08.175Z,41.49
2023-04-16T19:08:34.943Z,39.17
2023-04-16T19:11:01.945Z,38.91
2023-04-16T19:13:30.668Z,42.12
2023-04-16T19:16:00.609Z,42.35
2023-04-16T19:18:27.966Z,43.41
2023-04-16T19:21:01.764Z,43.69
2023-04-16T19:23:29.430Z,45.75
2023-04-16T19:25:56.963Z,40.02
2023-04-16T19:28:24.785Z,41.06
2023-04-16T19:30:52.761Z,40.48
2023-04-16T19:33:19.589Z,43.31
2023-04-16T19:35:47.392Z,39.76
2023-04-16T19:38:14.688Z,42.93
2023-04-16T19:40:46.915Z,41.47
2023-04-16T19:43:14.653Z,40.61
2023-04-16T19:45:46.132Z,39.16
2023-04-16T19:48:13.106Z,39.58
2023-04-16T19:50:41.315Z,40.70
2023-04-16T19:53:08.873Z,42.23
2023-04-16T19:55:35.706Z,40.74
2023-04-16T19:58:08.569Z,42.42
2023-04-16T20:00:41.008Z,41.60
2023-04-16T20:03:07.929Z,40.88
2023-04-16T20:05:34.822Z,40.93
2023-04-16T20:08:02.113Z,41.56
2023-04-16T20:10:31.473Z,42.26
2023-04-16T20:12:58.512Z,42.45
2023-04-16T20:15:25.435Z,41.38
2023-04-16T20:17:52.529Z,41.16
2023-04-16T20:20:19.327Z,47.15
2023-04-16T20:22:46.541Z,45.08
2023-04-16T20:25:15.072Z,40.63
2023-04-16T20:27:41.792Z,42.48
2023-04-16T20:30:08.964Z,44.13
2023-04-16T20:32:36.497Z,40.17
2023-04-16T20:35:05.176Z,41.20
2023-04-16T20:37:32.503Z,40.21
2023-04-16T20:39:59.943Z,42.56
2023-04-16T20:42:27.666Z,42.86
2023-04-16T20:44:56.713Z,42.71
2023-04-16T20:47:24.044Z,43.19
2023-04-16T20:49:53.013Z,39.82
2023-04-16T20:52:20.163Z,47.66
2023-04-16T20:54:47.846Z,43.01
2023-04-16T20:57:15.414Z,41.57
2023-04-16T20:59:42.792Z,40.47
2023-04-16T21:02:09.581Z,41.53
2023-04-16T21:04:36.505Z,44.24
2023-04-16T21:07:04.418Z,41.31
2023-04-16T21:09:31.997Z,39.81
2023-04-16T21:11:59.304Z,41.61
2023-04-16T21:14:26.073Z,41.04
2023-04-16T21:16:52.832Z,40.38
2023-04-16T21:19:20.051Z,40.20
2023-04-16T21:21:47.385Z,38.86
2023-04-16T21:24:14.310Z,39.71
2023-04-16T21:26:41.160Z,39.48
2023-04-16T21:29:07.866Z,39.63
2023-04-16T21:31:34.651Z,38.81
2023-04-16T21:34:02.380Z,41.14
2023-04-16T21:36:32.191Z,42.13
2023-04-16T21:38:59.049Z,43.55
2023-04-16T21:41:26.578Z,39.46
2023-04-16T21:43:53.417Z,39.03
2023-04-16T21:46:20.828Z,38.94
2023-04-16T21:48:48.525Z,40.14
2023-04-16T21:51:16.035Z,40.07
2023-04-16T21:53:43.128Z,39.04
2023-04-16T21:56:17.307Z,41.05
2023-04-16T21:58:44.068Z,38.81
2023-04-16T22:01:11.342Z,39.81
2023-04-16T22:03:40.453Z,41.48
2023-04-16T22:06:08.291Z,40.17
2023-04-16T22:08:35.023Z,38.23
2023-04-16T22:11:03.368Z,38.52
2023-04-16T22:13:32.672Z,38.02
2023-04-16T22:16:03.554Z,38.56
2023-04-16T22:18:33.068Z,43.57
2023-04-16T22:21:00.350Z,44.14
2023-04-16T22:23:28.118Z,39.43
2023-04-16T22:25:56.027Z,38.81
2023-04-16T22:28:23.665Z,42.48
2023-04-16T22:30:50.512Z,39.50
2023-04-16T22:33:17.781Z,39.61
2023-04-16T22:35:44.579Z,39.76
2023-04-16T22:38:11.692Z,40.38
2023-04-16T22:40:38.440Z,38.57
2023-04-16T22:43:05.307Z,40.74
2023-04-16T22:45:32.584Z,38.65
2023-04-16T22:47:59.402Z,39.84
2023-04-16T22:50:26.203Z,37.93
2023-04-16T22:52:53.233Z,39.52
2023-04-16T22:55:20.061Z,39.08
2023-04-16T22:57:47.510Z,39.95
2023-04-16T23:00:18.157Z,42.45
2023-04-16T23:02:45.667Z,40.26
2023-04-16T23:05:13.169Z,42.11
2023-04-16T23:07:40.098Z,43.04
2023-04-16T23:10:08.743Z,41.45
2023-04-16T23:12:37.470Z,41.62
2023-04-16T23:15:06.778Z,41.45
2023-04-16T23:17:35.105Z,41.85
2023-04-16T23:20:05.342Z,46.51
2023-04-16T23:22:33.047Z,46.09
2023-04-16T23:24:59.734Z,43.73
2023-04-16T23:27:26.556Z,40.25
2023-04-16T23:29:53.381Z,39.19
2023-04-16T23:32:20.166Z,40.17
2023-04-16T23:34:46.872Z,38.61
2023-04-16T23:37:13.595Z,39.12
2023-04-16T23:39:40.334Z,38.28
2023-04-16T23:42:07.208Z,39.10
2023-04-16T23:44:34.427Z,38.38
2023-04-16T23:47:01.789Z,39.18
2023-04-16T23:49:28.666Z,39.64
2023-04-16T23:51:55.440Z,37.70
2023-04-16T23:54:22.171Z,37.75
2023-04-16T23:56:49.495Z,37.99
2023-04-16T23:59:16.927Z,38.38
